sensor_id;sensor_type;location;lat;lon;timestamp;pressure;altitude;pressure_sealevel;temperature;humidity
65546;BME280;52177;55.968;37.498;2023-02-22T00:00:15;98478.16;;;-15.96;67.76
65546;BME280;52177;55.968;37.498;2023-02-22T00:00:48;98478.16;;;-15.96;67.68
65546;BME280;52177;55.968;37.498;2023-02-22T00:01:19;98478.97;;;-15.94;67.50
65546;BME280;52177;55.968;37.498;2023-02-22T00:02:04;98485.72;;;-15.93;67.27
65546;BME280;52177;55.968;37.498;2023-02-22T00:02:41;98480.63;;;-15.93;67.47
65546;BME280;52177;55.968;37.498;2023-02-22T00:03:21;98481.56;;;-15.96;67.58
65546;BME280;52177;55.968;37.498;2023-02-22T00:03:54;98488.44;;;-15.99;67.72
65546;BME280;52177;55.968;37.498;2023-02-22T00:04:25;98489.34;;;-16.00;67.71
65546;BME280;52177;55.968;37.498;2023-02-22T00:04:56;98482.50;;;-16.00;67.69
65546;BME280;52177;55.968;37.498;2023-02-22T00:05:27;98490.16;;;-16.00;67.64
65546;BME280;52177;55.968;37.498;2023-02-22T00:05:58;98489.34;;;-16.00;67.65
65546;BME280;52177;55.968;37.498;2023-02-22T00:06:31;98491.00;;;-15.99;67.62
65546;BME280;52177;55.968;37.498;2023-02-22T00:07:02;98491.06;;;-16.01;67.87
65546;BME280;52177;55.968;37.498;2023-02-22T00:07:32;98485.94;;;-16.01;67.74
65546;BME280;52177;55.968;37.498;2023-02-22T00:08:02;98485.94;;;-16.01;67.86
65546;BME280;52177;55.968;37.498;2023-02-22T00:08:34;98493.59;;;-16.01;67.74
65546;BME280;52177;55.968;37.498;2023-02-22T00:09:05;98490.16;;;-16.00;67.70
65546;BME280;52177;55.968;37.498;2023-02-22T00:09:37;98491.84;;;-15.99;67.71
65546;BME280;52177;55.968;37.498;2023-02-22T00:10:08;98489.34;;;-16.00;67.78
65546;BME280;52177;55.968;37.498;2023-02-22T00:10:42;98487.59;;;-16.00;67.96
65546;BME280;52177;55.968;37.498;2023-02-22T00:11:13;98491.84;;;-15.99;67.75
65546;BME280;52177;55.968;37.498;2023-02-22T00:11:44;98496.91;;;-15.97;67.78
65546;BME280;52177;55.968;37.498;2023-02-22T00:12:15;98496.09;;;-15.99;67.64
65546;BME280;52177;55.968;37.498;2023-02-22T00:12:49;98497.78;;;-15.98;67.58
65546;BME280;52177;55.968;37.498;2023-02-22T00:13:19;98503.81;;;-16.01;67.47
65546;BME280;52177;55.968;37.498;2023-02-22T00:13:51;98497.03;;;-16.02;67.63
65546;BME280;52177;55.968;37.498;2023-02-22T00:14:26;98497.00;;;-16.00;67.48
65546;BME280;52177;55.968;37.498;2023-02-22T00:14:56;98502.88;;;-15.98;67.30
65546;BME280;52177;55.968;37.498;2023-02-22T00:15:26;98502.78;;;-15.95;67.26
65546;BME280;52177;55.968;37.498;2023-02-22T00:15:57;98505.31;;;-15.93;67.10
65546;BME280;52177;55.968;37.498;2023-02-22T00:16:28;98502.69;;;-15.92;67.12
65546;BME280;52177;55.968;37.498;2023-02-22T00:16:59;98495.00;;;-15.90;67.13
65546;BME280;52177;55.968;37.498;2023-02-22T00:17:30;98504.50;;;-15.94;67.29
65546;BME280;52177;55.968;37.498;2023-02-22T00:18:00;98507.06;;;-15.96;67.22
65546;BME280;52177;55.968;37.498;2023-02-22T00:18:31;98500.38;;;-16.00;67.36
65546;BME280;52177;55.968;37.498;2023-02-22T00:19:01;98508.06;;;-16.01;67.40
65546;BME280;52177;55.968;37.498;2023-02-22T00:19:31;98508.94;;;-16.02;67.44
65546;BME280;52177;55.968;37.498;2023-02-22T00:20:02;98505.50;;;-16.01;67.32
65546;BME280;52177;55.968;37.498;2023-02-22T00:20:35;98509.84;;;-16.03;67.60
65546;BME280;52177;55.968;37.498;2023-02-22T00:21:07;98510.75;;;-16.06;67.48
65546;BME280;52177;55.968;37.498;2023-02-22T00:21:39;98508.25;;;-16.07;67.78
65546;BME280;52177;55.968;37.498;2023-02-22T00:22:09;98511.59;;;-16.05;67.66
65546;BME280;52177;55.968;37.498;2023-02-22T00:22:40;98510.69;;;-16.04;67.59
65546;BME280;52177;55.968;37.498;2023-02-22T00:23:15;98512.34;;;-16.02;67.44
65546;BME280;52177;55.968;37.498;2023-02-22T00:23:48;98512.31;;;-16.00;67.57
65546;BME280;52177;55.968;37.498;2023-02-22T00:24:18;98518.34;;;-16.04;67.76
65546;BME280;52177;55.968;37.498;2023-02-22T00:24:51;98512.38;;;-16.03;67.71
65546;BME280;52177;55.968;37.498;2023-02-22T00:25:23;98515.72;;;-16.01;67.44
65546;BME280;52177;55.968;37.498;2023-02-22T00:25:56;98510.66;;;-16.03;67.50
65546;BME280;52177;55.968;37.498;2023-02-22T00:26:26;98508.16;;;-16.04;67.66
65546;BME280;52177;55.968;37.498;2023-02-22T00:26:56;98513.38;;;-16.09;67.90
65546;BME280;52177;55.968;37.498;2023-02-22T00:27:27;98514.19;;;-16.07;67.73
65546;BME280;52177;55.968;37.498;2023-02-22T00:27:57;98514.16;;;-16.05;67.69
65546;BME280;52177;55.968;37.498;2023-02-22T00:28:27;98511.53;;;-16.04;67.67
65546;BME280;52177;55.968;37.498;2023-02-22T00:28:59;98517.53;;;-16.05;67.80
65546;BME280;52177;55.968;37.498;2023-02-22T00:29:30;98523.47;;;-16.04;67.79
65546;BME280;52177;55.968;37.498;2023-02-22T00:30:04;98520.88;;;-16.03;67.63
65546;BME280;52177;55.968;37.498;2023-02-22T00:30:34;98515.81;;;-16.04;67.54
65546;BME280;52177;55.968;37.498;2023-02-22T00:31:05;98516.72;;;-16.07;67.58
65546;BME280;52177;55.968;37.498;2023-02-22T00:31:36;98520.97;;;-16.06;67.74
65546;BME280;52177;55.968;37.498;2023-02-22T00:32:07;98529.47;;;-16.07;67.62
65546;BME280;52177;55.968;37.498;2023-02-22T00:32:37;98528.66;;;-16.07;67.86
65546;BME280;52177;55.968;37.498;2023-02-22T00:33:08;98531.19;;;-16.06;67.83
65546;BME280;52177;55.968;37.498;2023-02-22T00:33:38;98530.25;;;-16.03;67.61
65546;BME280;52177;55.968;37.498;2023-02-22T00:34:09;98527.66;;;-16.02;67.45
65546;BME280;52177;55.968;37.498;2023-02-22T00:34:39;98531.78;;;-15.98;67.55
65546;BME280;52177;55.968;37.498;2023-02-22T00:35:09;98535.19;;;-15.97;67.27
65546;BME280;52177;55.968;37.498;2023-02-22T00:35:40;98535.13;;;-15.94;67.33
65546;BME280;52177;55.968;37.498;2023-02-22T00:36:11;98530.00;;;-15.94;67.14
65546;BME280;52177;55.968;37.498;2023-02-22T00:36:48;98535.19;;;-15.97;67.11
65546;BME280;52177;55.968;37.498;2023-02-22T00:37:18;98536.94;;;-15.99;67.38
65546;BME280;52177;55.968;37.498;2023-02-22T00:37:49;98536.13;;;-16.01;67.54
65546;BME280;52177;55.968;37.498;2023-02-22T00:38:20;98538.66;;;-16.00;67.27
65546;BME280;52177;55.968;37.498;2023-02-22T00:38:50;98548.03;;;-16.00;67.32
65546;BME280;52177;55.968;37.498;2023-02-22T00:39:20;98537.81;;;-16.00;67.22
65546;BME280;52177;55.968;37.498;2023-02-22T00:39:51;98547.19;;;-16.01;67.32
65546;BME280;52177;55.968;37.498;2023-02-22T00:40:22;98544.78;;;-16.05;67.57
65546;BME280;52177;55.968;37.498;2023-02-22T00:40:52;98546.50;;;-16.06;67.57
65546;BME280;52177;55.968;37.498;2023-02-22T00:41:23;98547.38;;;-16.08;67.72
65546;BME280;52177;55.968;37.498;2023-02-22T00:41:53;98540.59;;;-16.08;67.48
65546;BME280;52177;55.968;37.498;2023-02-22T00:42:23;98538.06;;;-16.09;67.61
65546;BME280;52177;55.968;37.498;2023-02-22T00:42:53;98534.69;;;-16.10;67.68
65546;BME280;52177;55.968;37.498;2023-02-22T00:43:24;98536.41;;;-16.10;67.56
65546;BME280;52177;55.968;37.498;2023-02-22T00:43:54;98544.00;;;-16.09;67.29
65546;BME280;52177;55.968;37.498;2023-02-22T00:44:24;98539.72;;;-16.08;67.30
65546;BME280;52177;55.968;37.498;2023-02-22T00:44:54;98547.31;;;-16.05;67.34
65546;BME280;52177;55.968;37.498;2023-02-22T00:45:25;98543.88;;;-16.04;67.19
65546;BME280;52177;55.968;37.498;2023-02-22T00:45:56;98541.44;;;-16.09;67.51
65546;BME280;52177;55.968;37.498;2023-02-22T00:46:26;98537.25;;;-16.11;67.48
65546;BME280;52177;55.968;37.498;2023-02-22T00:46:57;98543.25;;;-16.12;67.56
65546;BME280;52177;55.968;37.498;2023-02-22T00:47:27;98540.75;;;-16.16;67.68
65546;BME280;52177;55.968;37.498;2023-02-22T00:47:59;98542.47;;;-16.16;67.78
65546;BME280;52177;55.968;37.498;2023-02-22T00:48:29;98539.94;;;-16.16;67.68
65546;BME280;52177;55.968;37.498;2023-02-22T00:48:59;98543.28;;;-16.14;67.74
65546;BME280;52177;55.968;37.498;2023-02-22T00:49:29;98547.50;;;-16.13;67.72
65546;BME280;52177;55.968;37.498;2023-02-22T00:50:00;98547.47;;;-16.11;67.56
65546;BME280;52177;55.968;37.498;2023-02-22T00:50:30;98544.19;;;-16.15;67.79
65546;BME280;52177;55.968;37.498;2023-02-22T00:51:00;98542.47;;;-16.16;67.83
65546;BME280;52177;55.968;37.498;2023-02-22T00:51:31;98543.38;;;-16.17;67.67
65546;BME280;52177;55.968;37.498;2023-02-22T00:52:02;98544.19;;;-16.15;67.45
65546;BME280;52177;55.968;37.498;2023-02-22T00:52:33;98544.19;;;-16.15;67.62
65546;BME280;52177;55.968;37.498;2023-02-22T00:53:05;98546.72;;;-16.15;67.66
65546;BME280;52177;55.968;37.498;2023-02-22T00:53:36;98551.03;;;-16.17;67.81
65546;BME280;52177;55.968;37.498;2023-02-22T00:54:06;98547.69;;;-16.19;67.87
65546;BME280;52177;55.968;37.498;2023-02-22T00:54:36;98551.09;;;-16.20;67.98
65546;BME280;52177;55.968;37.498;2023-02-22T00:55:07;98549.31;;;-16.17;67.61
65546;BME280;52177;55.968;37.498;2023-02-22T00:55:39;98550.16;;;-16.18;67.57
65546;BME280;52177;55.968;37.498;2023-02-22T00:56:09;98551.94;;;-16.20;67.91
65546;BME280;52177;55.968;37.498;2023-02-22T00:56:40;98559.59;;;-16.20;67.93
65546;BME280;52177;55.968;37.498;2023-02-22T00:57:11;98552.72;;;-16.18;67.87
65546;BME280;52177;55.968;37.498;2023-02-22T00:57:41;98557.00;;;-16.18;67.79
65546;BME280;52177;55.968;37.498;2023-02-22T00:58:11;98559.53;;;-16.18;67.66
65546;BME280;52177;55.968;37.498;2023-02-22T00:58:41;98557.81;;;-16.18;67.78
65546;BME280;52177;55.968;37.498;2023-02-22T00:59:13;98554.53;;;-16.21;67.91
65546;BME280;52177;55.968;37.498;2023-02-22T00:59:43;98556.25;;;-16.22;67.89
65546;BME280;52177;55.968;37.498;2023-02-22T01:00:18;98557.09;;;-16.23;67.94
65546;BME280;52177;55.968;37.498;2023-02-22T01:00:49;98560.53;;;-16.22;67.77
65546;BME280;52177;55.968;37.498;2023-02-22T01:01:19;98553.63;;;-16.20;67.76
65546;BME280;52177;55.968;37.498;2023-02-22T01:01:49;98557.91;;;-16.21;67.82
65546;BME280;52177;55.968;37.498;2023-02-22T01:02:19;98562.97;;;-16.19;67.63
65546;BME280;52177;55.968;37.498;2023-02-22T01:02:50;98562.94;;;-16.18;67.77
65546;BME280;52177;55.968;37.498;2023-02-22T01:03:20;98558.72;;;-16.19;67.65
65546;BME280;52177;55.968;37.498;2023-02-22T01:03:50;98561.25;;;-16.19;67.63
65546;BME280;52177;55.968;37.498;2023-02-22T01:04:21;98561.25;;;-16.19;67.67
65546;BME280;52177;55.968;37.498;2023-02-22T01:04:51;98563.09;;;-16.24;67.67
65546;BME280;52177;55.968;37.498;2023-02-22T01:05:23;98553.81;;;-16.26;67.76
65546;BME280;52177;55.968;37.498;2023-02-22T01:05:54;98559.75;;;-16.26;67.90
65546;BME280;52177;55.968;37.498;2023-02-22T01:06:25;98558.09;;;-16.27;67.71
65546;BME280;52177;55.968;37.498;2023-02-22T01:06:55;98564.03;;;-16.28;67.75
65546;BME280;52177;55.968;37.498;2023-02-22T01:07:25;98555.56;;;-16.28;67.78
65546;BME280;52177;55.968;37.498;2023-02-22T01:07:56;98557.22;;;-16.27;67.95
65546;BME280;52177;55.968;37.498;2023-02-22T01:08:27;98565.69;;;-16.25;67.70
65546;BME280;52177;55.968;37.498;2023-02-22T01:09:00;98569.16;;;-16.28;67.87
65546;BME280;52177;55.968;37.498;2023-02-22T01:09:33;98564.03;;;-16.28;67.89
65546;BME280;52177;55.968;37.498;2023-02-22T01:10:05;98566.59;;;-16.28;67.70
65546;BME280;52177;55.968;37.498;2023-02-22T01:10:36;98565.75;;;-16.27;67.55
65546;BME280;52177;55.968;37.498;2023-02-22T01:11:06;98573.34;;;-16.25;67.66
65546;BME280;52177;55.968;37.498;2023-02-22T01:11:37;98572.47;;;-16.24;67.65
65546;BME280;52177;55.968;37.498;2023-02-22T01:12:07;98564.84;;;-16.26;67.75
65546;BME280;52177;55.968;37.498;2023-02-22T01:12:37;98568.28;;;-16.27;67.65
65546;BME280;52177;55.968;37.498;2023-02-22T01:13:08;98574.25;;;-16.28;67.52
65546;BME280;52177;55.968;37.498;2023-02-22T01:13:41;98575.97;;;-16.28;67.75
65546;BME280;52177;55.968;37.498;2023-02-22T01:14:11;98578.53;;;-16.28;67.80
65546;BME280;52177;55.968;37.498;2023-02-22T01:14:41;98575.09;;;-16.27;67.64
65546;BME280;52177;55.968;37.498;2023-02-22T01:15:12;98579.25;;;-16.23;67.47
65546;BME280;52177;55.968;37.498;2023-02-22T01:15:42;98575.03;;;-16.24;67.58
65546;BME280;52177;55.968;37.498;2023-02-22T01:16:13;98576.72;;;-16.25;67.27
65546;BME280;52177;55.968;37.498;2023-02-22T01:16:44;98589.53;;;-16.26;67.56
65546;BME280;52177;55.968;37.498;2023-02-22T01:17:14;98582.72;;;-16.26;67.40
65546;BME280;52177;55.968;37.498;2023-02-22T01:17:44;98580.16;;;-16.26;67.46
65546;BME280;52177;55.968;37.498;2023-02-22T01:18:14;98582.72;;;-16.27;67.37
65546;BME280;52177;55.968;37.498;2023-02-22T01:18:46;98586.97;;;-16.26;67.35
65546;BME280;52177;55.968;37.498;2023-02-22T01:19:16;98575.88;;;-16.25;67.22
65546;BME280;52177;55.968;37.498;2023-02-22T01:19:46;98586.16;;;-16.27;67.28
65546;BME280;52177;55.968;37.498;2023-02-22T01:20:17;98587.00;;;-16.28;67.25
65546;BME280;52177;55.968;37.498;2023-02-22T01:20:47;98583.72;;;-16.33;67.56
65546;BME280;52177;55.968;37.498;2023-02-22T01:21:18;98580.38;;;-16.35;67.71
65546;BME280;52177;55.968;37.498;2023-02-22T01:21:48;98582.91;;;-16.33;67.72
65546;BME280;52177;55.968;37.498;2023-02-22T01:22:19;98582.03;;;-16.34;67.61
65546;BME280;52177;55.968;37.498;2023-02-22T01:22:51;98578.72;;;-16.36;67.80
65546;BME280;52177;55.968;37.498;2023-02-22T01:23:22;98590.69;;;-16.40;67.98
65546;BME280;52177;55.968;37.498;2023-02-22T01:23:52;98587.31;;;-16.40;68.04
65546;BME280;52177;55.968;37.498;2023-02-22T01:24:24;98583.84;;;-16.38;67.95
65546;BME280;52177;55.968;37.498;2023-02-22T01:24:54;98584.69;;;-16.37;67.96
65546;BME280;52177;55.968;37.498;2023-02-22T01:25:25;98580.38;;;-16.35;67.89
65546;BME280;52177;55.968;37.498;2023-02-22T01:25:56;98588.88;;;-16.34;67.72
65546;BME280;52177;55.968;37.498;2023-02-22T01:26:27;98588.88;;;-16.34;67.57
65546;BME280;52177;55.968;37.498;2023-02-22T01:26:57;98585.47;;;-16.35;67.63
65546;BME280;52177;55.968;37.498;2023-02-22T01:27:27;98582.94;;;-16.35;67.52
65546;BME280;52177;55.968;37.498;2023-02-22T01:27:58;98577.91;;;-16.38;67.72
65546;BME280;52177;55.968;37.498;2023-02-22T01:28:29;98583.06;;;-16.41;67.84
65546;BME280;52177;55.968;37.498;2023-02-22T01:28:59;98584.78;;;-16.42;67.73
65546;BME280;52177;55.968;37.498;2023-02-22T01:29:29;98583.06;;;-16.41;67.70
65546;BME280;52177;55.968;37.498;2023-02-22T01:30:00;98583.94;;;-16.41;67.49
65546;BME280;52177;55.968;37.498;2023-02-22T01:30:32;98583.88;;;-16.39;67.47
65546;BME280;52177;55.968;37.498;2023-02-22T01:31:02;98583.88;;;-16.39;67.53
65546;BME280;52177;55.968;37.498;2023-02-22T01:31:32;98583.06;;;-16.41;67.53
65546;BME280;52177;55.968;37.498;2023-02-22T01:32:03;98587.41;;;-16.43;67.67
65546;BME280;52177;55.968;37.498;2023-02-22T01:32:35;98586.59;;;-16.45;67.64
65546;BME280;52177;55.968;37.498;2023-02-22T01:33:05;98580.63;;;-16.46;67.77
65546;BME280;52177;55.968;37.498;2023-02-22T01:33:36;98588.25;;;-16.44;67.72
65546;BME280;52177;55.968;37.498;2023-02-22T01:34:06;98573.84;;;-16.45;67.78
65546;BME280;52177;55.968;37.498;2023-02-22T01:34:37;98583.25;;;-16.47;67.84
65546;BME280;52177;55.968;37.498;2023-02-22T01:35:10;98584.03;;;-16.45;67.77
65546;BME280;52177;55.968;37.498;2023-02-22T01:35:42;98582.31;;;-16.45;67.89
65546;BME280;52177;55.968;37.498;2023-02-22T01:36:15;98577.22;;;-16.45;67.79
65546;BME280;52177;55.968;37.498;2023-02-22T01:36:45;98578.94;;;-16.45;67.54
65546;BME280;52177;55.968;37.498;2023-02-22T01:37:16;98582.31;;;-16.45;67.59
65546;BME280;52177;55.968;37.498;2023-02-22T01:37:46;98583.97;;;-16.44;67.55
65546;BME280;52177;55.968;37.498;2023-02-22T01:38:16;98579.78;;;-16.45;67.66
65546;BME280;52177;55.968;37.498;2023-02-22T01:38:47;98583.97;;;-16.42;67.44
65546;BME280;52177;55.968;37.498;2023-02-22T01:39:17;98587.31;;;-16.40;67.30
65546;BME280;52177;55.968;37.498;2023-02-22T01:39:47;98580.53;;;-16.41;67.44
65546;BME280;52177;55.968;37.498;2023-02-22T01:40:19;98582.28;;;-16.43;67.63
65546;BME280;52177;55.968;37.498;2023-02-22T01:40:50;98583.16;;;-16.44;67.44
65546;BME280;52177;55.968;37.498;2023-02-22T01:41:20;98590.84;;;-16.46;67.70
65546;BME280;52177;55.968;37.498;2023-02-22T01:41:51;98588.34;;;-16.47;67.47
65546;BME280;52177;55.968;37.498;2023-02-22T01:42:24;98593.44;;;-16.47;67.58
65546;BME280;52177;55.968;37.498;2023-02-22T01:42:56;98585.84;;;-16.50;67.74
65546;BME280;52177;55.968;37.498;2023-02-22T01:43:30;98590.16;;;-16.52;67.62
65546;BME280;52177;55.968;37.498;2023-02-22T01:45:57;98587.56;;;-16.51;67.48
65546;BME280;52177;55.968;37.498;2023-02-22T01:46:28;98590.19;;;-16.54;67.75
65546;BME280;52177;55.968;37.498;2023-02-22T01:47:01;98588.59;;;-16.58;67.95
65546;BME280;52177;55.968;37.498;2023-02-22T01:47:32;98597.84;;;-16.54;67.71
65546;BME280;52177;55.968;37.498;2023-02-22T01:49:01;98595.41;;;-16.59;67.86
65546;BME280;52177;55.968;37.498;2023-02-22T01:49:40;98597.97;;;-16.60;67.74
65546;BME280;52177;55.968;37.498;2023-02-22T01:50:11;98595.41;;;-16.60;67.76
65546;BME280;52177;55.968;37.498;2023-02-22T01:50:47;98595.41;;;-16.59;67.66
65546;BME280;52177;55.968;37.498;2023-02-22T01:51:26;98596.19;;;-16.55;67.58
65546;BME280;52177;55.968;37.498;2023-02-22T01:51:57;98592.75;;;-16.55;67.50
65546;BME280;52177;55.968;37.498;2023-02-22T01:52:31;98593.66;;;-16.56;67.50
65546;BME280;52177;55.968;37.498;2023-02-22T01:53:01;98595.38;;;-16.57;67.72
65546;BME280;52177;55.968;37.498;2023-02-22T01:53:33;98601.38;;;-16.60;67.75
65546;BME280;52177;55.968;37.498;2023-02-22T01:54:27;98605.69;;;-16.62;67.76
65546;BME280;52177;55.968;37.498;2023-02-22T01:54:56;98599.72;;;-16.62;67.55
65546;BME280;52177;55.968;37.498;2023-02-22T01:55:27;98604.88;;;-16.64;67.81
65546;BME280;52177;55.968;37.498;2023-02-22T01:55:58;98599.69;;;-16.61;67.64
65546;BME280;52177;55.968;37.498;2023-02-22T01:56:30;98602.25;;;-16.61;67.81
65546;BME280;52177;55.968;37.498;2023-02-22T01:57:44;98606.63;;;-16.66;67.97
65546;BME280;52177;55.968;37.498;2023-02-22T01:58:15;98604.91;;;-16.67;68.15
65546;BME280;52177;55.968;37.498;2023-02-22T01:58:48;98605.81;;;-16.68;67.93
65546;BME280;52177;55.968;37.498;2023-02-22T01:59:19;98612.63;;;-16.68;67.98
65546;BME280;52177;55.968;37.498;2023-02-22T01:59:52;98616.84;;;-16.67;68.00
65546;BME280;52177;55.968;37.498;2023-02-22T02:00:25;98613.47;;;-16.68;68.05
65546;BME280;52177;55.968;37.498;2023-02-22T02:00:56;98611.78;;;-16.69;67.90
65546;BME280;52177;55.968;37.498;2023-02-22T02:01:27;98618.63;;;-16.71;68.09
65546;BME280;52177;55.968;37.498;2023-02-22T02:01:58;98617.72;;;-16.68;67.89
65546;BME280;52177;55.968;37.498;2023-02-22T02:02:29;98618.56;;;-16.68;67.91
65546;BME280;52177;55.968;37.498;2023-02-22T02:03:04;98621.06;;;-16.66;67.95
65546;BME280;52177;55.968;37.498;2023-02-22T02:03:36;98620.22;;;-16.67;67.65
65546;BME280;52177;55.968;37.498;2023-02-22T02:04:09;98621.09;;;-16.68;67.87
65546;BME280;52177;55.968;37.498;2023-02-22T02:04:40;98629.59;;;-16.67;67.84
65546;BME280;52177;55.968;37.498;2023-02-22T02:05:11;98626.19;;;-16.68;67.69
65546;BME280;52177;55.968;37.498;2023-02-22T02:05:42;98629.56;;;-16.66;67.83
65546;BME280;52177;55.968;37.498;2023-02-22T02:06:13;98623.56;;;-16.63;67.59
65546;BME280;52177;55.968;37.498;2023-02-22T02:06:43;98630.38;;;-16.64;67.67
65546;BME280;52177;55.968;37.498;2023-02-22T02:07:16;98633.78;;;-16.65;67.66
65546;BME280;52177;55.968;37.498;2023-02-22T02:07:46;98627.09;;;-16.69;67.79
65546;BME280;52177;55.968;37.498;2023-02-22T02:08:20;98633.03;;;-16.70;67.73
65546;BME280;52177;55.968;37.498;2023-02-22T02:09:55;98626.28;;;-16.71;67.70
65546;BME280;52177;55.968;37.498;2023-02-22T02:10:26;98632.09;;;-16.64;67.49
65546;BME280;52177;55.968;37.498;2023-02-22T02:10:57;98635.50;;;-16.65;67.46
65546;BME280;52177;55.968;37.498;2023-02-22T02:11:28;98632.09;;;-16.66;67.39
65546;BME280;52177;55.968;37.498;2023-02-22T02:11:59;98639.78;;;-16.67;67.54
65546;BME280;52177;55.968;37.498;2023-02-22T02:12:32;98638.94;;;-16.68;67.54
65546;BME280;52177;55.968;37.498;2023-02-22T02:13:03;98637.31;;;-16.70;67.46
65546;BME280;52177;55.968;37.498;2023-02-22T02:13:33;98635.66;;;-16.73;67.64
65546;BME280;52177;55.968;37.498;2023-02-22T02:14:05;98642.50;;;-16.73;67.67
65546;BME280;52177;55.968;37.498;2023-02-22T02:14:35;98638.22;;;-16.73;67.60
65546;BME280;52177;55.968;37.498;2023-02-22T02:15:45;98642.38;;;-16.69;67.60
65546;BME280;52177;55.968;37.498;2023-02-22T02:16:18;98648.25;;;-16.67;67.57
65546;BME280;52177;55.968;37.498;2023-02-22T02:16:51;98652.59;;;-16.69;67.72
65546;BME280;52177;55.968;37.498;2023-02-22T02:17:22;98640.69;;;-16.70;67.81
65546;BME280;52177;55.968;37.498;2023-02-22T02:17:53;98649.16;;;-16.69;67.53
65546;BME280;52177;55.968;37.498;2023-02-22T02:18:24;98649.22;;;-16.71;67.62
65546;BME280;52177;55.968;37.498;2023-02-22T02:18:55;98649.28;;;-16.74;67.83
65546;BME280;52177;55.968;37.498;2023-02-22T02:20:16;98655.16;;;-16.70;67.60
65546;BME280;52177;55.968;37.498;2023-02-22T02:20:53;98658.63;;;-16.74;67.67
65546;BME280;52177;55.968;37.498;2023-02-22T02:22:49;98656.00;;;-16.70;67.62
65546;BME280;52177;55.968;37.498;2023-02-22T02:27:31;98662.00;;;-16.72;67.85
65546;BME280;52177;55.968;37.498;2023-02-22T02:35:00;98668.97;;;-16.79;67.66
65546;BME280;52177;55.968;37.498;2023-02-22T02:35:49;98666.41;;;-16.79;67.60
65546;BME280;52177;55.968;37.498;2023-02-22T02:36:38;98667.28;;;-16.80;67.73
65546;BME280;52177;55.968;37.498;2023-02-22T02:37:11;98666.50;;;-16.82;67.76
65546;BME280;52177;55.968;37.498;2023-02-22T02:37:52;98666.50;;;-16.82;67.71
65546;BME280;52177;55.968;37.498;2023-02-22T02:39:05;98669.88;;;-16.82;67.73
65546;BME280;52177;55.968;37.498;2023-02-22T02:39:42;98669.94;;;-16.85;67.70
65546;BME280;52177;55.968;37.498;2023-02-22T02:40:21;98663.16;;;-16.86;67.74
65546;BME280;52177;55.968;37.498;2023-02-22T02:40:57;98671.69;;;-16.87;67.59
65546;BME280;52177;55.968;37.498;2023-02-22T02:41:32;98673.41;;;-16.89;67.83
65546;BME280;52177;55.968;37.498;2023-02-22T02:42:05;98675.16;;;-16.91;67.75
65546;BME280;52177;55.968;37.498;2023-02-22T02:42:39;98672.69;;;-16.94;67.99
65546;BME280;52177;55.968;37.498;2023-02-22T02:44:40;98674.34;;;-16.93;67.84
65546;BME280;52177;55.968;37.498;2023-02-22T02:45:15;98674.31;;;-16.91;67.85
65546;BME280;52177;55.968;37.498;2023-02-22T02:47:03;98672.66;;;-16.92;67.94
65546;BME280;52177;55.968;37.498;2023-02-22T02:47:27;98675.22;;;-16.94;67.77
65546;BME280;52177;55.968;37.498;2023-02-22T02:47:58;98674.34;;;-16.93;67.82
65546;BME280;52177;55.968;37.498;2023-02-22T02:48:31;98682.91;;;-16.95;67.93
65546;BME280;52177;55.968;37.498;2023-02-22T02:49:04;98687.13;;;-16.94;67.76
65546;BME280;52177;55.968;37.498;2023-02-22T02:49:59;98686.28;;;-16.95;67.81
65546;BME280;52177;55.968;37.498;2023-02-22T02:50:35;98682.00;;;-16.93;67.67
65546;BME280;52177;55.968;37.498;2023-02-22T02:51:06;98687.09;;;-16.93;67.83
65546;BME280;52177;55.968;37.498;2023-02-22T02:51:40;98691.38;;;-16.95;67.68
65546;BME280;52177;55.968;37.498;2023-02-22T02:52:11;98695.63;;;-16.95;67.77
65546;BME280;52177;55.968;37.498;2023-02-22T02:52:45;98692.28;;;-16.97;67.94
65546;BME280;52177;55.968;37.498;2023-02-22T02:53:26;98693.16;;;-16.97;67.95
65546;BME280;52177;55.968;37.498;2023-02-22T02:53:59;98692.28;;;-16.97;67.93
65546;BME280;52177;55.968;37.498;2023-02-22T02:54:30;98695.69;;;-16.97;67.76
65546;BME280;52177;55.968;37.498;2023-02-22T02:55:02;98694.81;;;-16.97;67.92
65546;BME280;52177;55.968;37.498;2023-02-22T02:55:32;98697.38;;;-16.97;67.97
65546;BME280;52177;55.968;37.498;2023-02-22T02:56:05;98699.06;;;-16.96;67.90
65546;BME280;52177;55.968;37.498;2023-02-22T02:56:36;98693.16;;;-16.97;67.82
65546;BME280;52177;55.968;37.498;2023-02-22T02:57:06;98696.56;;;-16.99;67.82
65546;BME280;52177;55.968;37.498;2023-02-22T02:57:38;98695.72;;;-16.98;67.98
65546;BME280;52177;55.968;37.498;2023-02-22T02:58:15;98704.22;;;-16.99;68.11
65546;BME280;52177;55.968;37.498;2023-02-22T02:58:47;98693.16;;;-16.98;67.82
65546;BME280;52177;55.968;37.498;2023-02-22T02:59:31;98699.09;;;-16.98;67.99
65546;BME280;52177;55.968;37.498;2023-02-22T03:00:02;98695.72;;;-17.00;68.07
65546;BME280;52177;55.968;37.498;2023-02-22T03:00:38;98696.56;;;-16.99;68.17
65546;BME280;52177;55.968;37.498;2023-02-22T03:01:10;98696.56;;;-16.99;68.00
65546;BME280;52177;55.968;37.498;2023-02-22T03:01:56;98691.47;;;-16.99;68.03
65546;BME280;52177;55.968;37.498;2023-02-22T03:02:37;98695.63;;;-16.95;67.67
65546;BME280;52177;55.968;37.498;2023-02-22T03:03:50;98702.47;;;-16.97;67.89
65546;BME280;52177;55.968;37.498;2023-02-22T03:05:28;98696.47;;;-16.95;67.79
65546;BME280;52177;55.968;37.498;2023-02-22T03:08:29;98703.28;;;-16.95;67.57
65546;BME280;52177;55.968;37.498;2023-02-22T03:09:53;98702.53;;;-16.99;67.77
65546;BME280;52177;55.968;37.498;2023-02-22T03:11:04;98700.81;;;-17.00;67.77
65546;BME280;52177;55.968;37.498;2023-02-22T03:13:18;98698.25;;;-16.98;67.65
65546;BME280;52177;55.968;37.498;2023-02-22T03:15:11;98712.75;;;-17.02;67.85
65546;BME280;52177;55.968;37.498;2023-02-22T03:15:18;98706.00;;;-17.05;67.76